createdAt,value
2019-06-26T00:01:45.520Z,8.75
2019-06-26T00:03:49.407Z,8.28
2019-06-26T00:05:53.303Z,9.15
2019-06-26T00:07:57.121Z,8.53
2019-06-26T00:10:00.919Z,8.38
2019-06-26T00:12:04.415Z,8.50
2019-06-26T00:14:08.340Z,8.33
2019-06-26T00:16:12.121Z,9.20
2019-06-26T00:18:15.927Z,8.40
2019-06-26T00:20:20.130Z,9.13
2019-06-26T00:22:23.940Z,8.98
2019-06-26T00:24:27.735Z,8.75
2019-06-26T00:26:31.539Z,8.30
2019-06-26T00:28:35.350Z,8.78
2019-06-26T00:30:39.149Z,8.70
2019-06-26T00:32:42.633Z,8.83
2019-06-26T00:34:46.372Z,9.13
2019-06-26T00:36:50.172Z,9.05
2019-06-26T00:38:53.700Z,9.40
2019-06-26T00:40:57.539Z,9.35
2019-06-26T00:43:02.498Z,8.78
2019-06-26T00:45:06.473Z,8.65
2019-06-26T00:47:10.293Z,8.53
2019-06-26T00:49:14.190Z,8.73
2019-06-26T00:51:18.086Z,9.80
2019-06-26T00:53:21.892Z,8.33
2019-06-26T00:55:25.694Z,8.75
2019-06-26T00:57:29.615Z,10.50
2019-06-26T00:59:33.503Z,9.45
2019-06-26T01:01:37.307Z,9.28
2019-06-26T01:03:41.216Z,8.78
2019-06-26T01:05:45.008Z,9.15
2019-06-26T01:07:48.808Z,9.35
2019-06-26T01:09:53.434Z,8.88
2019-06-26T01:11:56.919Z,9.58
2019-06-26T01:14:00.736Z,10.13
2019-06-26T01:16:04.635Z,10.35
2019-06-26T01:18:08.463Z,9.48
2019-06-26T01:20:12.656Z,9.98
2019-06-26T01:22:16.464Z,9.38
2019-06-26T01:24:19.996Z,9.88
2019-06-26T01:26:23.851Z,9.90
2019-06-26T01:28:27.654Z,10.35
2019-06-26T01:30:31.458Z,9.60
2019-06-26T01:32:35.276Z,9.05
2019-06-26T01:34:39.056Z,9.55
2019-06-26T01:36:42.868Z,9.68
2019-06-26T01:38:46.772Z,10.78
2019-06-26T01:40:50.582Z,9.83
2019-06-26T01:42:54.370Z,10.58
2019-06-26T01:44:57.858Z,9.38
2019-06-26T01:47:01.403Z,10.80
2019-06-26T01:49:05.273Z,10.43
2019-06-26T01:51:09.079Z,9.73
2019-06-26T01:53:12.561Z,9.90
2019-06-26T01:57:19.971Z,9.95
2019-06-26T01:59:23.767Z,10.70
2019-06-26T02:01:27.255Z,10.08
2019-06-26T02:03:30.729Z,9.93
2019-06-26T02:05:34.583Z,10.28
2019-06-26T02:07:38.377Z,10.05
2019-06-26T02:09:42.274Z,10.80
2019-06-26T02:11:46.081Z,10.82
2019-06-26T02:13:49.890Z,11.55
2019-06-26T02:15:53.767Z,10.00
2019-06-26T02:17:57.585Z,10.80
2019-06-26T02:20:01.071Z,11.28
2019-06-26T02:22:04.629Z,11.35
2019-06-26T02:24:08.473Z,9.75
2019-06-26T02:26:12.281Z,10.82
2019-06-26T02:28:17.201Z,10.18
2019-06-26T02:30:21.008Z,10.50
2019-06-26T02:32:24.496Z,10.50
2019-06-26T02:34:28.300Z,11.10
2019-06-26T02:36:32.111Z,11.15
2019-06-26T02:38:36.101Z,10.98
2019-06-26T02:40:39.909Z,10.95
2019-06-26T02:42:43.722Z,10.45
2019-06-26T02:44:53.725Z,10.68
2019-06-26T02:46:53.171Z,10.35
2019-06-26T02:48:57.069Z,10.88
2019-06-26T02:51:00.552Z,11.10
2019-06-26T02:53:04.199Z,10.82
2019-06-26T02:55:08.271Z,10.70
2019-06-26T02:57:12.073Z,10.50
2019-06-26T02:59:15.562Z,9.78
2019-06-26T03:01:19.463Z,10.25
2019-06-26T03:03:23.277Z,9.88
2019-06-26T03:05:27.084Z,9.80
2019-06-26T03:07:30.629Z,10.88
2019-06-26T03:09:34.478Z,11.08
2019-06-26T03:11:38.377Z,10.98
2019-06-26T03:13:43.217Z,11.55
2019-06-26T03:15:50.332Z,10.58
2019-06-26T03:17:55.742Z,10.90
2019-06-26T03:19:59.021Z,10.25
2019-06-26T03:22:02.511Z,12.20
2019-06-26T03:24:06.445Z,8.13
2019-06-26T03:26:09.977Z,10.93
2019-06-26T03:28:13.447Z,11.18
2019-06-26T03:30:16.951Z,11.48
2019-06-26T03:32:20.487Z,12.07
2019-06-26T03:34:24.313Z,11.65
2019-06-26T03:36:28.121Z,11.18
2019-06-26T03:38:32.020Z,10.35
2019-06-26T03:40:35.813Z,10.63
2019-06-26T03:42:39.619Z,11.53
2019-06-26T03:44:43.411Z,11.45
2019-06-26T03:46:47.331Z,11.70
2019-06-26T03:48:50.819Z,10.40
2019-06-26T03:50:54.717Z,10.55
2019-06-26T03:52:58.527Z,11.88
2019-06-26T03:55:02.325Z,11.05
2019-06-26T03:57:06.131Z,12.85
2019-06-26T03:59:09.941Z,12.05
2019-06-26T04:01:13.485Z,11.90
2019-06-26T04:03:17.349Z,14.38
2019-06-26T04:05:20.838Z,11.57
2019-06-26T04:07:24.738Z,11.80
2019-06-26T04:09:28.529Z,11.55
2019-06-26T04:11:32.332Z,12.10
2019-06-26T04:13:36.226Z,11.22
2019-06-26T04:15:42.600Z,12.33
2019-06-26T04:17:45.063Z,12.20
2019-06-26T04:19:48.876Z,11.75
2019-06-26T04:21:52.671Z,11.08
2019-06-26T04:23:56.478Z,10.98
2019-06-26T04:25:59.951Z,12.40
2019-06-26T04:28:06.358Z,13.15
2019-06-26T04:30:13.813Z,11.33
2019-06-26T04:32:17.297Z,11.68
2019-06-26T04:34:21.217Z,12.47
2019-06-26T04:36:25.042Z,11.00
2019-06-26T04:38:29.985Z,11.38
2019-06-26T04:40:33.744Z,11.57
2019-06-26T04:42:37.560Z,12.00
2019-06-26T04:44:41.362Z,13.05
2019-06-26T04:46:45.161Z,11.97
2019-06-26T04:48:48.968Z,12.47
2019-06-26T04:50:52.767Z,12.15
2019-06-26T04:52:56.234Z,12.53
2019-06-26T04:55:00.065Z,14.73
2019-06-26T04:57:03.866Z,15.70
2019-06-26T04:59:07.774Z,14.55
2019-06-26T05:01:11.574Z,16.27
2019-06-26T05:03:15.051Z,17.42
2019-06-26T05:05:18.987Z,17.77
2019-06-26T05:07:22.451Z,14.70
2019-06-26T05:09:26.270Z,16.85
2019-06-26T05:11:29.740Z,18.32
2019-06-26T05:13:33.221Z,17.00
2019-06-26T05:15:37.063Z,17.20
2019-06-26T05:17:40.864Z,17.55
2019-06-26T05:19:44.771Z,16.85
2019-06-26T05:21:48.683Z,15.43
2019-06-26T05:23:52.480Z,17.50
2019-06-26T05:25:56.273Z,17.70
2019-06-26T05:28:00.098Z,18.50
2019-06-26T05:30:07.077Z,17.75
2019-06-26T05:32:10.964Z,17.85
2019-06-26T05:34:14.768Z,17.92
2019-06-26T05:36:18.573Z,18.42
2019-06-26T05:38:22.477Z,16.30
2019-06-26T05:40:26.272Z,17.60
2019-06-26T05:42:30.198Z,17.27
2019-06-26T05:44:34.060Z,18.02
2019-06-26T05:46:37.990Z,17.92
2019-06-26T05:48:41.797Z,16.95
2019-06-26T05:50:45.588Z,17.98
2019-06-26T05:52:49.399Z,18.75
2019-06-26T05:54:53.187Z,19.35
2019-06-26T05:56:57.013Z,18.50
2019-06-26T05:59:00.818Z,19.15
2019-06-26T06:01:04.591Z,19.60
2019-06-26T06:03:08.462Z,19.02
2019-06-26T06:05:13.127Z,18.60
2019-06-26T06:07:16.955Z,18.55
2019-06-26T06:09:20.845Z,17.27
2019-06-26T06:11:24.750Z,17.10
2019-06-26T06:13:28.542Z,17.37
2019-06-26T06:15:32.342Z,18.02
2019-06-26T06:17:36.137Z,19.87
2019-06-26T06:19:40.068Z,17.57
2019-06-26T06:21:43.953Z,18.30
2019-06-26T06:23:47.755Z,18.70
2019-06-26T06:25:52.697Z,18.15
2019-06-26T06:27:56.503Z,16.93
2019-06-26T06:30:00.289Z,16.62
2019-06-26T06:32:04.205Z,18.35
2019-06-26T06:34:07.994Z,16.45
2019-06-26T06:36:11.548Z,16.93
2019-06-26T06:38:15.405Z,18.33
2019-06-26T06:40:19.414Z,18.17
2019-06-26T06:42:22.983Z,17.35
2019-06-26T06:44:27.737Z,16.35
2019-06-26T06:46:31.529Z,17.27
2019-06-26T06:48:35.251Z,16.60
2019-06-26T06:50:39.135Z,15.58
2019-06-26T06:52:42.989Z,14.50
2019-06-26T06:54:46.840Z,13.65
2019-06-26T06:56:50.648Z,13.93
2019-06-26T06:58:54.461Z,13.65
2019-06-26T07:00:58.515Z,14.33
2019-06-26T07:03:04.106Z,12.58
2019-06-26T07:05:08.828Z,13.00
2019-06-26T07:07:22.100Z,11.43
2019-06-26T07:09:28.688Z,12.33
2019-06-26T07:11:32.178Z,12.50
2019-06-26T07:13:36.013Z,11.43
2019-06-26T07:15:39.501Z,11.97
2019-06-26T07:17:43.413Z,12.23
2019-06-26T07:19:47.187Z,11.57
2019-06-26T07:21:52.694Z,10.72
2019-06-26T07:23:58.511Z,10.70
2019-06-26T07:26:02.011Z,10.10
2019-06-26T07:28:05.981Z,9.97
2019-06-26T07:30:09.917Z,11.48
2019-06-26T07:32:13.736Z,10.78
2019-06-26T07:34:17.623Z,10.70
2019-06-26T07:36:21.109Z,10.93
2019-06-26T07:38:24.597Z,10.07
2019-06-26T07:40:28.417Z,10.03
2019-06-26T07:42:32.202Z,10.70
2019-06-26T07:44:36.034Z,10.45
2019-06-26T07:46:39.919Z,11.55
2019-06-26T07:48:43.719Z,9.55
2019-06-26T07:50:47.523Z,10.35
2019-06-26T07:52:51.078Z,9.80
2019-06-26T07:54:54.570Z,10.13
2019-06-26T07:56:58.424Z,10.23
2019-06-26T07:59:02.359Z,10.20
2019-06-26T08:01:06.230Z,9.93
2019-06-26T08:03:10.058Z,10.15
2019-06-26T08:05:14.143Z,9.83
2019-06-26T08:07:17.940Z,9.83
2019-06-26T08:09:21.750Z,10.03
2019-06-26T08:11:25.218Z,9.40
2019-06-26T08:13:29.050Z,9.30
2019-06-26T08:15:32.952Z,10.85
2019-06-26T08:17:36.752Z,8.88
2019-06-26T08:19:40.574Z,9.95
2019-06-26T08:21:46.811Z,9.35
2019-06-26T08:23:49.654Z,9.68
2019-06-26T08:25:53.496Z,9.30
2019-06-26T08:28:10.635Z,9.15
2019-06-26T08:30:16.990Z,9.23
2019-06-26T08:32:21.188Z,9.05
2019-06-26T08:34:31.951Z,8.73
2019-06-26T08:36:39.020Z,8.73
2019-06-26T08:38:42.933Z,8.88
2019-06-26T08:40:46.741Z,8.48
2019-06-26T08:42:50.640Z,9.75
2019-06-26T08:44:54.441Z,9.63
2019-06-26T08:47:02.148Z,9.13
2019-06-26T08:49:06.347Z,8.20
2019-06-26T08:51:10.958Z,8.60
2019-06-26T08:53:18.617Z,8.55
2019-06-26T08:55:22.878Z,8.48
2019-06-26T08:57:27.928Z,9.13
2019-06-26T08:59:31.734Z,8.43
2019-06-26T09:01:35.817Z,8.60
2019-06-26T09:03:42.101Z,9.13
2019-06-26T09:06:11.012Z,8.65
2019-06-26T09:08:30.513Z,9.13
2019-06-26T09:10:39.367Z,8.10
2019-06-26T09:12:44.772Z,8.75
2019-06-26T09:14:51.716Z,8.05
2019-06-26T09:16:56.620Z,8.40
2019-06-26T09:19:03.186Z,7.42
2019-06-26T09:21:06.708Z,6.47
2019-06-26T09:23:10.179Z,6.87
2019-06-26T09:25:22.120Z,6.87
2019-06-26T09:27:19.716Z,5.95
2019-06-26T09:29:24.095Z,6.92
2019-06-26T09:31:28.245Z,6.35
2019-06-26T09:33:32.563Z,6.83
2019-06-26T09:35:38.422Z,6.78
2019-06-26T09:37:45.780Z,6.75
2019-06-26T09:39:49.793Z,6.20
2019-06-26T09:41:53.838Z,7.00
2019-06-26T09:43:57.791Z,6.90
2019-06-26T09:48:05.209Z,7.47
2019-06-26T09:50:09.926Z,6.67
2019-06-26T09:52:14.233Z,6.70
2019-06-26T09:56:21.239Z,6.28
2019-06-26T09:58:25.664Z,6.95
2019-06-26T10:00:29.659Z,7.05
2019-06-26T10:02:33.483Z,5.65
2019-06-26T10:04:38.962Z,6.87
2019-06-26T10:06:42.845Z,7.03
2019-06-26T10:08:46.718Z,6.50
2019-06-26T10:10:50.216Z,6.75
2019-06-26T10:12:54.018Z,6.87
2019-06-26T10:14:58.047Z,6.62
2019-06-26T10:17:01.934Z,6.65
2019-06-26T10:19:10.537Z,6.67
2019-06-26T10:21:10.999Z,7.12
2019-06-26T10:23:14.791Z,6.62
2019-06-26T10:25:19.705Z,6.37
2019-06-26T10:27:25.346Z,7.03
2019-06-26T10:29:29.156Z,6.37
2019-06-26T10:31:33.033Z,6.78
2019-06-26T10:33:45.385Z,7.33
2019-06-26T10:36:03.381Z,6.97
2019-06-26T10:38:07.905Z,7.90
2019-06-26T10:40:16.587Z,7.53
2019-06-26T10:42:21.047Z,6.83
2019-06-26T10:44:25.197Z,6.53
2019-06-26T10:48:33.997Z,6.92
2019-06-26T10:50:48.263Z,7.03
2019-06-26T10:52:43.691Z,6.50
2019-06-26T10:54:47.271Z,7.00
2019-06-26T10:56:55.472Z,6.85
2019-06-26T10:58:59.396Z,6.50
2019-06-26T11:01:02.871Z,5.97
2019-06-26T11:03:06.633Z,7.62
2019-06-26T11:05:12.095Z,6.75
2019-06-26T11:07:15.875Z,6.00
2019-06-26T11:09:19.696Z,6.40
2019-06-26T11:11:23.490Z,5.78
2019-06-26T11:13:27.287Z,6.47
2019-06-26T11:15:31.196Z,5.80
2019-06-26T11:17:34.659Z,6.12
2019-06-26T11:19:43.843Z,5.37
2019-06-26T11:21:43.963Z,5.58
2019-06-26T11:23:50.821Z,5.80
2019-06-26T11:25:54.621Z,5.67
2019-06-26T11:27:58.199Z,6.12
2019-06-26T11:30:02.058Z,6.10
2019-06-26T11:32:09.556Z,5.60
2019-06-26T11:34:15.046Z,5.15
2019-06-26T11:36:18.987Z,5.75
2019-06-26T11:38:22.851Z,5.60
2019-06-26T11:40:26.724Z,5.80
2019-06-26T11:42:32.816Z,5.87
2019-06-26T11:44:35.720Z,5.92
2019-06-26T11:46:39.546Z,5.55
2019-06-26T11:48:43.035Z,5.35
2019-06-26T11:50:47.313Z,6.22
2019-06-26T11:52:51.206Z,6.10
2019-06-26T11:55:02.721Z,5.22
2019-06-26T11:57:01.565Z,5.40
2019-06-26T11:59:05.387Z,5.45
2019-06-26T12:01:09.326Z,5.78
2019-06-26T12:05:18.138Z,5.87
2019-06-26T12:07:22.036Z,6.08
2019-06-26T12:09:26.957Z,5.80
2019-06-26T12:11:30.874Z,6.42
2019-06-26T12:13:34.751Z,6.15
2019-06-26T12:15:38.717Z,6.03
2019-06-26T12:19:47.195Z,6.47
2019-06-26T12:21:53.989Z,5.75
2019-06-26T12:23:57.662Z,6.42
2019-06-26T12:26:01.476Z,5.85
2019-06-26T12:28:05.698Z,6.12
2019-06-26T12:30:09.790Z,6.33
2019-06-26T12:34:18.611Z,5.80
2019-06-26T12:36:22.448Z,5.95
2019-06-26T12:38:26.009Z,6.47
2019-06-26T12:40:31.287Z,6.15
2019-06-26T12:42:35.359Z,6.53
2019-06-26T12:44:39.394Z,6.30
2019-06-26T12:48:45.623Z,6.67
2019-06-26T12:50:51.795Z,6.45
2019-06-26T12:52:55.373Z,6.12
2019-06-26T12:54:59.618Z,5.80
2019-06-26T12:59:06.341Z,6.45
2019-06-26T13:01:11.431Z,7.25
2019-06-26T13:03:15.349Z,6.55
2019-06-26T13:05:19.667Z,6.50
2019-06-26T13:07:23.467Z,6.00
2019-06-26T13:09:27.359Z,6.42
2019-06-26T13:11:31.267Z,6.65
2019-06-26T13:13:35.149Z,5.80
2019-06-26T13:15:38.981Z,6.20
2019-06-26T13:17:42.975Z,6.30
2019-06-26T13:19:46.766Z,6.42
2019-06-26T13:21:50.228Z,6.30
2019-06-26T13:23:54.240Z,6.97
2019-06-26T13:28:04.356Z,5.90
2019-06-26T13:32:16.973Z,6.60
2019-06-26T13:34:21.168Z,6.47
2019-06-26T13:36:24.655Z,6.53
2019-06-26T13:38:29.341Z,7.20
2019-06-26T13:40:34.571Z,7.25
2019-06-26T13:42:38.422Z,6.75
2019-06-26T13:44:42.227Z,6.60
2019-06-26T13:46:46.031Z,6.78
2019-06-26T13:48:50.244Z,6.87
2019-06-26T13:51:09.506Z,7.37
2019-06-26T13:53:10.555Z,7.05
2019-06-26T13:55:14.552Z,7.05
2019-06-26T13:57:18.566Z,6.50
2019-06-26T13:59:22.478Z,6.83
2019-06-26T14:01:26.275Z,7.33
2019-06-26T14:03:30.187Z,6.62
2019-06-26T14:05:33.968Z,7.78
2019-06-26T14:07:37.769Z,6.87
2019-06-26T14:09:41.243Z,6.35
2019-06-26T14:11:45.073Z,5.75
2019-06-26T14:13:48.882Z,5.90
2019-06-26T14:15:52.351Z,6.22
2019-06-26T14:17:56.372Z,6.65
2019-06-26T14:22:04.660Z,7.08
2019-06-26T14:24:09.076Z,6.78
2019-06-26T14:26:12.969Z,6.05
2019-06-26T14:28:19.894Z,6.92
2019-06-26T14:30:27.698Z,7.50
2019-06-26T14:32:31.380Z,6.72
2019-06-26T14:34:34.862Z,5.92
2019-06-26T14:36:39.191Z,6.22
2019-06-26T14:38:48.174Z,7.10
2019-06-26T14:40:54.791Z,6.30
2019-06-26T14:42:59.167Z,7.50
2019-06-26T14:45:02.750Z,6.58
2019-06-26T14:47:06.626Z,7.10
2019-06-26T14:49:10.505Z,6.50
2019-06-26T14:51:13.967Z,6.75
2019-06-26T14:53:22.182Z,6.72
2019-06-26T14:55:25.938Z,7.05
2019-06-26T14:57:29.805Z,6.55
2019-06-26T14:59:33.792Z,6.47
2019-06-26T15:01:39.020Z,6.33
2019-06-26T15:03:42.862Z,6.40
2019-06-26T15:05:46.670Z,7.20
2019-06-26T15:07:50.561Z,6.53
2019-06-26T15:09:54.049Z,6.35
2019-06-26T15:11:57.796Z,6.30
2019-06-26T15:14:01.434Z,5.70
2019-06-26T15:16:05.474Z,7.28
2019-06-26T15:18:10.585Z,6.10
2019-06-26T15:20:15.366Z,5.80
2019-06-26T15:22:22.293Z,5.85
2019-06-26T15:24:27.012Z,6.45
2019-06-26T15:26:30.534Z,6.05
2019-06-26T15:28:34.370Z,5.58
2019-06-26T15:30:38.238Z,6.37
2019-06-26T15:32:41.730Z,6.03
2019-06-26T15:34:45.522Z,6.17
2019-06-26T15:36:48.993Z,6.35
2019-06-26T15:38:52.824Z,5.37
2019-06-26T15:40:56.296Z,5.62
2019-06-26T15:43:00.346Z,5.85
2019-06-26T15:47:07.294Z,6.20
2019-06-26T15:49:11.060Z,5.72
2019-06-26T15:51:14.936Z,5.70
2019-06-26T15:53:18.837Z,5.55
2019-06-26T15:55:22.662Z,6.00
2019-06-26T15:57:28.006Z,5.97
2019-06-26T15:59:31.768Z,5.92
2019-06-26T16:01:35.576Z,4.87
2019-06-26T16:03:39.223Z,5.45
2019-06-26T16:05:43.068Z,5.72
2019-06-26T16:07:46.889Z,5.85
2019-06-26T16:09:50.715Z,5.97
2019-06-26T16:11:54.590Z,5.08
2019-06-26T16:13:59.808Z,5.30
2019-06-26T16:16:03.282Z,5.58
2019-06-26T16:18:22.089Z,4.72
2019-06-26T16:20:23.316Z,4.87
2019-06-26T16:22:32.159Z,5.10
2019-06-26T16:24:32.772Z,5.22
2019-06-26T16:26:36.563Z,4.42
2019-06-26T16:28:40.363Z,5.10
2019-06-26T16:30:45.818Z,4.58
2019-06-26T16:32:49.704Z,4.60
2019-06-26T16:34:53.538Z,5.00
2019-06-26T16:36:57.324Z,5.15
2019-06-26T16:39:01.116Z,4.55
2019-06-26T16:41:06.668Z,4.87
2019-06-26T16:43:10.456Z,5.47
2019-06-26T16:45:14.259Z,4.47
2019-06-26T16:47:18.079Z,5.08
2019-06-26T16:49:22.814Z,5.47
2019-06-26T16:51:26.696Z,4.85
2019-06-26T16:53:30.615Z,5.22
2019-06-26T16:55:34.512Z,5.90
2019-06-26T16:57:38.299Z,4.45
2019-06-26T16:59:41.790Z,4.92
2019-06-26T17:01:45.625Z,4.80
2019-06-26T17:03:49.536Z,4.78
2019-06-26T17:05:54.718Z,5.22
2019-06-26T17:07:58.630Z,4.67
2019-06-26T17:10:02.402Z,4.53
2019-06-26T17:12:06.368Z,4.75
2019-06-26T17:14:11.795Z,4.45
2019-06-26T17:16:15.596Z,5.12
2019-06-26T17:18:19.457Z,4.85
2019-06-26T17:20:24.034Z,4.75
2019-06-26T17:22:27.824Z,4.10
2019-06-26T17:24:38.488Z,4.47
2019-06-26T17:26:50.461Z,3.90
2019-06-26T17:28:54.727Z,3.60
2019-06-26T17:31:00.688Z,4.22
2019-06-26T17:33:04.652Z,3.47
2019-06-26T17:35:08.794Z,3.87
2019-06-26T17:37:13.246Z,3.83
2019-06-26T17:39:17.084Z,2.87
2019-06-26T17:41:20.912Z,3.72
2019-06-26T17:43:24.895Z,2.90
2019-06-26T17:47:32.105Z,2.98
2019-06-26T17:51:38.565Z,3.02
2019-06-26T17:53:43.325Z,3.10
2019-06-26T17:55:47.016Z,2.87
2019-06-26T17:57:50.790Z,3.17
2019-06-26T17:59:54.590Z,3.95
2019-06-26T18:01:58.385Z,3.02
2019-06-26T18:04:01.861Z,3.58
2019-06-26T18:06:05.708Z,3.80
2019-06-26T18:08:09.493Z,3.40
2019-06-26T18:10:13.395Z,3.50
2019-06-26T18:12:17.206Z,3.47
2019-06-26T18:14:21.015Z,3.33
2019-06-26T18:16:24.921Z,3.83
2019-06-26T18:18:28.707Z,3.90
2019-06-26T18:20:32.514Z,3.55
2019-06-26T18:22:36.318Z,3.10
2019-06-26T18:24:40.124Z,3.12
2019-06-26T18:26:44.036Z,3.35
2019-06-26T18:28:47.830Z,3.67
2019-06-26T18:30:51.639Z,3.40
2019-06-26T18:32:56.448Z,3.67
2019-06-26T18:35:01.765Z,3.45
2019-06-26T18:37:05.704Z,3.65
2019-06-26T18:39:09.510Z,3.30
2019-06-26T18:41:13.314Z,3.27
2019-06-26T18:43:17.217Z,3.70
2019-06-26T18:45:21.142Z,3.65
2019-06-26T18:47:25.020Z,4.42
2019-06-26T18:49:28.809Z,4.65
2019-06-26T18:51:32.613Z,3.58
2019-06-26T18:53:36.103Z,4.00
2019-06-26T18:55:39.937Z,3.67
2019-06-26T18:57:43.473Z,4.15
2019-06-26T18:59:47.337Z,3.93
2019-06-26T19:01:50.859Z,4.28
2019-06-26T19:03:54.717Z,4.53
2019-06-26T19:05:58.461Z,3.95
2019-06-26T19:08:02.371Z,5.15
2019-06-26T19:10:06.549Z,3.98
2019-06-26T19:12:10.011Z,3.55
2019-06-26T19:14:13.762Z,4.30
2019-06-26T19:16:17.232Z,4.00
2019-06-26T19:18:21.021Z,4.10
2019-06-26T19:20:24.856Z,3.67
2019-06-26T19:22:28.645Z,4.12
2019-06-26T19:24:32.143Z,4.15
2019-06-26T19:26:35.925Z,4.47
2019-06-26T19:28:39.725Z,4.53
2019-06-26T19:30:43.223Z,3.90
2019-06-26T19:32:47.151Z,4.87
2019-06-26T19:34:51.067Z,4.87
2019-06-26T19:36:54.862Z,4.75
2019-06-26T19:38:58.686Z,4.33
2019-06-26T19:41:02.550Z,4.97
2019-06-26T19:43:06.353Z,4.22
2019-06-26T19:45:11.390Z,4.87
2019-06-26T19:47:15.303Z,4.53
2019-06-26T19:49:19.076Z,4.28
2019-06-26T19:51:22.997Z,4.78
2019-06-26T19:53:26.781Z,4.78
2019-06-26T19:55:30.299Z,4.78
2019-06-26T19:57:34.077Z,4.60
2019-06-26T19:59:37.661Z,6.05
2019-06-26T20:01:41.205Z,5.20
2019-06-26T20:03:45.002Z,4.40
2019-06-26T20:05:48.813Z,4.65
2019-06-26T20:07:52.593Z,4.95
2019-06-26T20:09:56.434Z,4.60
2019-06-26T20:11:59.919Z,3.52
2019-06-26T20:14:03.801Z,4.03
2019-06-26T20:16:07.713Z,4.08
2019-06-26T20:18:11.718Z,4.05
2019-06-26T20:20:15.696Z,3.80
2019-06-26T20:22:19.161Z,4.45
2019-06-26T20:24:23.057Z,3.73
2019-06-26T20:26:26.530Z,3.50
2019-06-26T20:28:30.613Z,4.45
2019-06-26T20:30:34.417Z,4.10
2019-06-26T20:32:37.901Z,4.12
2019-06-26T20:34:41.761Z,4.85
2019-06-26T20:38:49.625Z,3.67
2019-06-26T20:40:53.425Z,4.10
2019-06-26T20:42:57.239Z,3.67
2019-06-26T20:45:01.024Z,3.90
2019-06-26T20:47:04.866Z,3.58
2019-06-26T20:49:08.867Z,5.17
2019-06-26T20:51:12.860Z,3.50
2019-06-26T20:53:16.679Z,4.78
2019-06-26T20:55:21.199Z,4.53
2019-06-26T20:59:27.825Z,4.25
2019-06-26T21:01:31.719Z,4.37
2019-06-26T21:03:35.564Z,4.45
2019-06-26T21:05:39.464Z,4.08
2019-06-26T21:07:43.271Z,5.22
2019-06-26T21:09:47.023Z,4.28
2019-06-26T21:11:50.489Z,4.53
2019-06-26T21:13:54.267Z,4.35
2019-06-26T21:15:57.876Z,4.37
2019-06-26T21:18:01.357Z,4.07
2019-06-26T21:20:06.880Z,3.65
2019-06-26T21:22:11.410Z,4.53
2019-06-26T21:24:15.533Z,3.42
2019-06-26T21:26:19.591Z,4.50
2019-06-26T21:28:23.457Z,4.92
2019-06-26T21:30:27.245Z,4.60
2019-06-26T21:32:31.053Z,4.25
2019-06-26T21:34:34.858Z,4.05
2019-06-26T21:36:38.345Z,4.22
2019-06-26T21:38:42.135Z,4.20
2019-06-26T21:40:45.991Z,3.75
2019-06-26T21:42:49.767Z,3.98
2019-06-26T21:44:53.554Z,3.70
2019-06-26T21:46:57.365Z,3.92
2019-06-26T21:49:01.153Z,4.87
2019-06-26T21:51:05.059Z,4.53
2019-06-26T21:53:09.891Z,4.25
2019-06-26T21:55:15.349Z,3.95
2019-06-26T21:57:37.262Z,4.15
2019-06-26T21:59:59.088Z,4.28
2019-06-26T22:02:20.807Z,3.77
2019-06-26T22:04:24.504Z,3.70
2019-06-26T22:06:32.303Z,4.55
2019-06-26T22:08:54.181Z,4.30
2019-06-26T22:10:59.595Z,3.55
2019-06-26T22:13:03.474Z,3.98
2019-06-26T22:15:07.682Z,4.00
2019-06-26T22:17:12.748Z,4.12
2019-06-26T22:19:18.724Z,4.33
2019-06-26T22:21:22.785Z,4.03
2019-06-26T22:23:26.574Z,3.95
2019-06-26T22:25:30.127Z,3.72
2019-06-26T22:27:33.977Z,3.63
2019-06-26T22:29:37.881Z,3.47
2019-06-26T22:31:41.695Z,3.95
2019-06-26T22:33:45.593Z,3.55
2019-06-26T22:35:49.154Z,3.77
2019-06-26T22:37:52.985Z,3.27
2019-06-26T22:39:56.894Z,3.75
2019-06-26T22:42:00.798Z,4.47
2019-06-26T22:44:04.701Z,3.42
2019-06-26T22:46:08.497Z,4.53
2019-06-26T22:48:12.290Z,3.55
2019-06-26T22:50:16.219Z,4.08
2019-06-26T22:52:20.013Z,4.35
2019-06-26T22:54:23.923Z,4.22
2019-06-26T22:56:27.819Z,4.22
2019-06-26T22:58:31.614Z,4.42
2019-06-26T23:00:35.083Z,4.78
2019-06-26T23:02:38.876Z,4.22
2019-06-26T23:04:42.716Z,4.53
2019-06-26T23:06:46.526Z,4.40
2019-06-26T23:08:50.422Z,4.28
2019-06-26T23:10:54.221Z,3.83
2019-06-26T23:12:58.036Z,4.85
2019-06-26T23:15:01.932Z,4.17
2019-06-26T23:17:05.843Z,4.53
2019-06-26T23:19:09.751Z,5.28
2019-06-26T23:21:13.217Z,4.55
2019-06-26T23:23:17.046Z,5.42
2019-06-26T23:25:20.854Z,5.10
2019-06-26T23:27:25.566Z,4.92
2019-06-26T23:29:29.377Z,4.87
2019-06-26T23:31:33.175Z,4.92
2019-06-26T23:33:36.661Z,5.53
2019-06-26T23:35:40.116Z,5.12
2019-06-26T23:37:43.971Z,5.47
2019-06-26T23:39:47.447Z,5.70
2019-06-26T23:41:50.933Z,6.75
2019-06-26T23:43:54.865Z,6.53
2019-06-26T23:45:58.665Z,5.60
2019-06-26T23:48:02.567Z,6.33
2019-06-26T23:50:06.129Z,7.67
2019-06-26T23:52:09.975Z,6.30
2019-06-26T23:54:13.447Z,6.60
2019-06-26T23:56:17.270Z,6.60
2019-06-26T23:58:21.186Z,6.15
